sensor_id;sensor_type;location;lat;lon;timestamp;pressure;altitude;pressure_sealevel;temperature;humidity
24996;BME280;13016;52.162;21.034;2024-01-30T00:03:16;102219.58;;;7.68;51.05
24996;BME280;13016;52.162;21.034;2024-01-30T00:09:17;102213.09;;;7.59;51.26
24996;BME280;13016;52.162;21.034;2024-01-30T00:15:17;102197.81;;;7.41;51.61
24996;BME280;13016;52.162;21.034;2024-01-30T00:21:17;102199.91;;;7.51;51.64
24996;BME280;13016;52.162;21.034;2024-01-30T00:27:18;102193.71;;;7.53;51.54
24996;BME280;13016;52.162;21.034;2024-01-30T00:33:18;102183.58;;;7.59;51.38
24996;BME280;13016;52.162;21.034;2024-01-30T00:39:18;102179.23;;;7.57;51.39
24996;BME280;13016;52.162;21.034;2024-01-30T00:45:18;102183.38;;;7.61;51.23
24996;BME280;13016;52.162;21.034;2024-01-30T00:51:19;102178.69;;;7.66;51.10
24996;BME280;13016;52.162;21.034;2024-01-30T00:57:19;102172.58;;;7.65;50.97
24996;BME280;13016;52.162;21.034;2024-01-30T01:03:22;102177.70;;;7.80;50.84
24996;BME280;13016;52.162;21.034;2024-01-30T01:09:23;102175.46;;;7.94;50.56
24996;BME280;13016;52.162;21.034;2024-01-30T01:15:23;102167.66;;;7.89;50.18
24996;BME280;13016;52.162;21.034;2024-01-30T01:21:23;102168.55;;;7.81;50.40
24996;BME280;13016;52.162;21.034;2024-01-30T01:27:23;102169.64;;;8.03;50.32
24996;BME280;13016;52.162;21.034;2024-01-30T01:33:23;102171.09;;;7.93;50.16
24996;BME280;13016;52.162;21.034;2024-01-30T01:39:24;102173.95;;;8.15;49.96
24996;BME280;13016;52.162;21.034;2024-01-30T01:45:24;102164.98;;;8.23;49.77
24996;BME280;13016;52.162;21.034;2024-01-30T01:51:24;102158.17;;;8.20;49.61
24996;BME280;13016;52.162;21.034;2024-01-30T01:57:26;102161.60;;;8.33;49.62
24996;BME280;13016;52.162;21.034;2024-01-30T02:03:26;102158.15;;;8.38;49.17
24996;BME280;13016;52.162;21.034;2024-01-30T02:09:26;102153.06;;;8.13;49.12
24996;BME280;13016;52.162;21.034;2024-01-30T02:15:27;102140.61;;;7.89;49.64
24996;BME280;13016;52.162;21.034;2024-01-30T02:21:27;102137.50;;;7.71;50.21
24996;BME280;13016;52.162;21.034;2024-01-30T02:27:27;102134.86;;;7.71;50.22
24996;BME280;13016;52.162;21.034;2024-01-30T02:33:27;102135.64;;;7.67;50.41
24996;BME280;13016;52.162;21.034;2024-01-30T02:39:28;102135.73;;;7.79;50.36
24996;BME280;13016;52.162;21.034;2024-01-30T02:45:28;102142.09;;;7.69;50.33
24996;BME280;13016;52.162;21.034;2024-01-30T02:51:31;102139.17;;;7.65;50.28
24996;BME280;13016;52.162;21.034;2024-01-30T02:57:38;102137.73;;;7.52;50.51
24996;BME280;13016;52.162;21.034;2024-01-30T03:03:38;102133.39;;;7.48;50.72
24996;BME280;13016;52.162;21.034;2024-01-30T03:09:39;102129.11;;;7.43;50.70
24996;BME280;13016;52.162;21.034;2024-01-30T03:15:41;102134.69;;;7.45;50.69
24996;BME280;13016;52.162;21.034;2024-01-30T03:21:41;102132.52;;;7.40;50.80
24996;BME280;13016;52.162;21.034;2024-01-30T03:27:44;102130.71;;;7.33;50.80
24996;BME280;13016;52.162;21.034;2024-01-30T03:33:45;102130.42;;;7.40;50.56
24996;BME280;13016;52.162;21.034;2024-01-30T03:39:45;102128.52;;;7.38;50.45
24996;BME280;13016;52.162;21.034;2024-01-30T03:45:54;102128.41;;;7.35;50.52
24996;BME280;13016;52.162;21.034;2024-01-30T03:51:54;102132.98;;;7.43;50.23
24996;BME280;13016;52.162;21.034;2024-01-30T03:57:55;102126.98;;;7.45;50.14
24996;BME280;13016;52.162;21.034;2024-01-30T04:03:55;102123.84;;;7.35;50.28
24996;BME280;13016;52.162;21.034;2024-01-30T04:10:04;102122.86;;;7.31;50.25
24996;BME280;13016;52.162;21.034;2024-01-30T04:16:05;102117.73;;;7.15;50.75
24996;BME280;13016;52.162;21.034;2024-01-30T04:22:05;102114.89;;;7.26;50.44
24996;BME280;13016;52.162;21.034;2024-01-30T04:28:05;102120.09;;;7.12;50.78
24996;BME280;13016;52.162;21.034;2024-01-30T04:34:06;102118.65;;;7.13;50.69
24996;BME280;13016;52.162;21.034;2024-01-30T04:40:06;102121.17;;;7.10;50.68
24996;BME280;13016;52.162;21.034;2024-01-30T04:46:07;102116.27;;;7.18;50.51
24996;BME280;13016;52.162;21.034;2024-01-30T04:52:07;102117.75;;;7.14;50.48
24996;BME280;13016;52.162;21.034;2024-01-30T04:58:07;102116.14;;;7.07;50.48
24996;BME280;13016;52.162;21.034;2024-01-30T05:04:14;102118.67;;;7.22;50.43
24996;BME280;13016;52.162;21.034;2024-01-30T05:10:14;102117.61;;;7.22;50.11
24996;BME280;13016;52.162;21.034;2024-01-30T05:16:14;102111.02;;;7.17;49.97
24996;BME280;13016;52.162;21.034;2024-01-30T05:22:14;102112.40;;;7.01;50.21
24996;BME280;13016;52.162;21.034;2024-01-30T05:28:15;102102.46;;;7.07;50.23
24996;BME280;13016;52.162;21.034;2024-01-30T05:34:15;102103.41;;;7.03;50.18
24996;BME280;13016;52.162;21.034;2024-01-30T05:40:16;102098.58;;;6.89;50.27
24996;BME280;13016;52.162;21.034;2024-01-30T05:46:16;102106.17;;;6.96;50.34
24996;BME280;13016;52.162;21.034;2024-01-30T05:52:16;102110.14;;;7.18;49.81
24996;BME280;13016;52.162;21.034;2024-01-30T05:58:20;102108.11;;;7.15;49.55
24996;BME280;13016;52.162;21.034;2024-01-30T06:04:20;102113.20;;;7.23;49.48
24996;BME280;13016;52.162;21.034;2024-01-30T06:10:23;102118.54;;;7.28;49.11
24996;BME280;13016;52.162;21.034;2024-01-30T06:22:51;102107.33;;;7.01;49.56
24996;BME280;13016;52.162;21.034;2024-01-30T06:30:06;102105.87;;;7.12;49.32
24996;BME280;13016;52.162;21.034;2024-01-30T07:36:02;102122.63;;;8.23;46.66
24996;BME280;13016;52.162;21.034;2024-01-30T07:42:12;102118.80;;;8.37;46.30
24996;BME280;13016;52.162;21.034;2024-01-30T08:54:05;102101.06;;;12.50;38.62
24996;BME280;13016;52.162;21.034;2024-01-30T09:35:37;102093.00;;;13.82;36.48
24996;BME280;13016;52.162;21.034;2024-01-30T09:41:43;102093.36;;;14.34;35.55
24996;BME280;13016;52.162;21.034;2024-01-30T10:05:58;102079.91;;;14.18;35.39
24996;BME280;13016;52.162;21.034;2024-01-30T10:12:15;102070.73;;;13.47;35.58
24996;BME280;13016;52.162;21.034;2024-01-30T16:43:12;101854.98;;;12.81;37.08
24996;BME280;13016;52.162;21.034;2024-01-30T19:56:58;101790.30;;;10.55;41.12
24996;BME280;13016;52.162;21.034;2024-01-30T20:03:09;101776.55;;;10.40;41.26
24996;BME280;13016;52.162;21.034;2024-01-30T20:09:21;101770.80;;;10.34;41.51
24996;BME280;13016;52.162;21.034;2024-01-30T20:21:57;101768.85;;;10.44;41.53
24996;BME280;13016;52.162;21.034;2024-01-30T21:58:07;101755.35;;;10.41;41.98
24996;BME280;13016;52.162;21.034;2024-01-30T22:18:14;101755.56;;;10.26;42.21
24996;BME280;13016;52.162;21.034;2024-01-30T22:24:34;101759.38;;;10.33;42.45
24996;BME280;13016;52.162;21.034;2024-01-30T22:30:38;101759.75;;;10.27;42.03
24996;BME280;13016;52.162;21.034;2024-01-30T23:06:37;101744.36;;;10.05;42.35
24996;BME280;13016;52.162;21.034;2024-01-30T23:12:57;101737.98;;;10.11;42.61
24996;BME280;13016;52.162;21.034;2024-01-30T23:18:58;101725.54;;;10.09;42.31
24996;BME280;13016;52.162;21.034;2024-01-30T23:31:40;101723.48;;;10.12;42.26
24996;BME280;13016;52.162;21.034;2024-01-30T23:44:00;101719.59;;;9.88;42.38
24996;BME280;13016;52.162;21.034;2024-01-30T23:50:38;101715.67;;;9.85;42.57
